sensor_id;sensor_type;location;lat;lon;timestamp;noise_LAeq;noise_LA_min;noise_LA_max;noise_LA01;noise_LA95
74496;Laerm;62979;55.720;37.606;2023-07-28T00:02:08;46.94;42.56;58.50;;
74496;Laerm;62979;55.720;37.606;2023-07-28T00:04:36;49.22;43.56;59.76;;
74496;Laerm;62979;55.720;37.606;2023-07-28T00:07:04;47.14;43.08;54.60;;
74496;Laerm;62979;55.720;37.606;2023-07-28T00:09:31;47.94;43.22;55.56;;
74496;Laerm;62979;55.720;37.606;2023-07-28T00:11:59;51.38;43.03;64.06;;
74496;Laerm;62979;55.720;37.606;2023-07-28T00:14:27;47.09;43.23;55.48;;
74496;Laerm;62979;55.720;37.606;2023-07-28T00:16:57;49.64;43.77;59.45;;
74496;Laerm;62979;55.720;37.606;2023-07-28T00:19:24;49.62;43.41;63.01;;
74496;Laerm;62979;55.720;37.606;2023-07-28T00:21:51;48.42;43.33;54.83;;
74496;Laerm;62979;55.720;37.606;2023-07-28T00:24:19;47.87;43.48;56.92;;
74496;Laerm;62979;55.720;37.606;2023-07-28T00:26:45;49.22;44.24;66.80;;
74496;Laerm;62979;55.720;37.606;2023-07-28T00:29:12;49.39;43.08;57.65;;
74496;Laerm;62979;55.720;37.606;2023-07-28T00:31:39;49.79;43.97;60.82;;
74496;Laerm;62979;55.720;37.606;2023-07-28T00:34:07;48.11;43.86;53.03;;
74496;Laerm;62979;55.720;37.606;2023-07-28T00:36:34;48.50;44.58;54.25;;
74496;Laerm;62979;55.720;37.606;2023-07-28T00:39:01;48.46;44.20;53.22;;
74496;Laerm;62979;55.720;37.606;2023-07-28T00:41:28;57.27;44.80;72.30;;
74496;Laerm;62979;55.720;37.606;2023-07-28T00:43:55;49.30;44.60;61.91;;
74496;Laerm;62979;55.720;37.606;2023-07-28T00:46:22;49.83;45.51;58.81;;
74496;Laerm;62979;55.720;37.606;2023-07-28T00:48:49;50.56;45.00;59.30;;
74496;Laerm;62979;55.720;37.606;2023-07-28T00:51:18;50.50;45.35;55.68;;
74496;Laerm;62979;55.720;37.606;2023-07-28T00:53:45;51.97;47.44;56.50;;
74496;Laerm;62979;55.720;37.606;2023-07-28T00:56:12;51.90;46.71;61.28;;
74496;Laerm;62979;55.720;37.606;2023-07-28T00:58:40;51.44;46.68;69.45;;
74496;Laerm;62979;55.720;37.606;2023-07-28T01:01:07;51.72;47.07;56.65;;
74496;Laerm;62979;55.720;37.606;2023-07-28T01:03:34;50.21;44.63;58.20;;
74496;Laerm;62979;55.720;37.606;2023-07-28T01:06:15;48.61;45.02;57.21;;
74496;Laerm;62979;55.720;37.606;2023-07-28T01:08:56;49.05;44.16;70.36;;
74496;Laerm;62979;55.720;37.606;2023-07-28T01:11:23;49.93;44.53;57.25;;
74496;Laerm;62979;55.720;37.606;2023-07-28T01:13:50;48.65;44.37;58.64;;
74496;Laerm;62979;55.720;37.606;2023-07-28T01:16:17;49.33;44.93;60.73;;
74496;Laerm;62979;55.720;37.606;2023-07-28T01:18:44;48.61;44.74;63.12;;
74496;Laerm;62979;55.720;37.606;2023-07-28T01:21:20;48.91;44.99;55.14;;
74496;Laerm;62979;55.720;37.606;2023-07-28T01:24:00;48.78;44.78;55.54;;
74496;Laerm;62979;55.720;37.606;2023-07-28T01:26:34;48.00;44.41;52.71;;
74496;Laerm;62979;55.720;37.606;2023-07-28T01:29:03;51.58;45.68;66.55;;
74496;Laerm;62979;55.720;37.606;2023-07-28T01:31:30;50.42;44.98;62.53;;
74496;Laerm;62979;55.720;37.606;2023-07-28T01:33:58;51.31;44.83;63.48;;
74496;Laerm;62979;55.720;37.606;2023-07-28T01:36:24;49.88;44.28;61.95;;
74496;Laerm;62979;55.720;37.606;2023-07-28T01:38:51;50.43;44.48;63.08;;
74496;Laerm;62979;55.720;37.606;2023-07-28T01:41:19;51.09;44.14;65.02;;
74496;Laerm;62979;55.720;37.606;2023-07-28T01:43:47;49.26;44.83;57.83;;
74496;Laerm;62979;55.720;37.606;2023-07-28T01:46:14;48.49;44.01;53.23;;
74496;Laerm;62979;55.720;37.606;2023-07-28T01:48:41;48.59;44.82;59.57;;
74496;Laerm;62979;55.720;37.606;2023-07-28T01:51:08;48.13;43.46;52.53;;
74496;Laerm;62979;55.720;37.606;2023-07-28T01:53:35;47.95;43.42;52.15;;
74496;Laerm;62979;55.720;37.606;2023-07-28T01:56:02;47.97;43.96;59.20;;
74496;Laerm;62979;55.720;37.606;2023-07-28T01:58:29;48.80;43.94;61.03;;
74496;Laerm;62979;55.720;37.606;2023-07-28T02:00:57;48.01;43.24;57.50;;
74496;Laerm;62979;55.720;37.606;2023-07-28T02:03:24;48.02;42.60;55.19;;
74496;Laerm;62979;55.720;37.606;2023-07-28T02:05:51;48.65;43.04;55.33;;
74496;Laerm;62979;55.720;37.606;2023-07-28T02:08:18;47.82;43.37;55.20;;
74496;Laerm;62979;55.720;37.606;2023-07-28T02:10:45;47.46;43.54;51.33;;
74496;Laerm;62979;55.720;37.606;2023-07-28T02:13:12;48.20;43.74;59.46;;
74496;Laerm;62979;55.720;37.606;2023-07-28T02:15:39;49.40;45.22;57.57;;
74496;Laerm;62979;55.720;37.606;2023-07-28T02:18:07;50.68;44.85;58.74;;
74496;Laerm;62979;55.720;37.606;2023-07-28T02:20:35;48.40;43.78;58.89;;
74496;Laerm;62979;55.720;37.606;2023-07-28T02:23:03;48.34;43.51;61.09;;
74496;Laerm;62979;55.720;37.606;2023-07-28T02:25:30;47.00;42.31;51.97;;
74496;Laerm;62979;55.720;37.606;2023-07-28T02:27:57;48.93;43.55;60.37;;
74496;Laerm;62979;55.720;37.606;2023-07-28T02:30:24;48.27;43.89;53.86;;
74496;Laerm;62979;55.720;37.606;2023-07-28T02:32:51;49.99;43.74;59.82;;
74496;Laerm;62979;55.720;37.606;2023-07-28T02:35:19;51.48;44.56;59.89;;
74496;Laerm;62979;55.720;37.606;2023-07-28T02:37:46;47.84;43.22;55.27;;
74496;Laerm;62979;55.720;37.606;2023-07-28T02:40:13;48.26;43.78;59.00;;
74496;Laerm;62979;55.720;37.606;2023-07-28T02:42:40;48.20;43.73;57.14;;
74496;Laerm;62979;55.720;37.606;2023-07-28T02:45:08;47.27;43.31;51.56;;
74496;Laerm;62979;55.720;37.606;2023-07-28T02:47:36;48.07;43.82;54.26;;
74496;Laerm;62979;55.720;37.606;2023-07-28T02:50:04;48.51;43.65;59.26;;
74496;Laerm;62979;55.720;37.606;2023-07-28T02:52:32;50.48;45.22;57.85;;
74496;Laerm;62979;55.720;37.606;2023-07-28T02:54:59;49.72;45.78;56.58;;
74496;Laerm;62979;55.720;37.606;2023-07-28T02:57:26;51.45;45.91;59.25;;
74496;Laerm;62979;55.720;37.606;2023-07-28T02:59:53;51.35;45.44;62.50;;
74496;Laerm;62979;55.720;37.606;2023-07-28T03:02:20;50.41;45.57;57.86;;
74496;Laerm;62979;55.720;37.606;2023-07-28T03:04:47;52.92;46.53;58.36;;
74496;Laerm;62979;55.720;37.606;2023-07-28T03:07:14;53.11;47.41;63.31;;
74496;Laerm;62979;55.720;37.606;2023-07-28T03:09:42;51.19;45.85;58.77;;
74496;Laerm;62979;55.720;37.606;2023-07-28T03:12:09;50.36;45.33;55.83;;
74496;Laerm;62979;55.720;37.606;2023-07-28T03:14:36;52.42;46.16;60.94;;
74496;Laerm;62979;55.720;37.606;2023-07-28T03:17:03;56.04;44.60;70.91;;
74496;Laerm;62979;55.720;37.606;2023-07-28T03:19:30;52.07;46.30;64.14;;
74496;Laerm;62979;55.720;37.606;2023-07-28T03:21:57;52.94;46.36;73.36;;
74496;Laerm;62979;55.720;37.606;2023-07-28T03:24:24;52.64;47.19;62.85;;
74496;Laerm;62979;55.720;37.606;2023-07-28T03:26:52;53.14;47.06;64.08;;
74496;Laerm;62979;55.720;37.606;2023-07-28T03:29:19;54.81;47.74;65.12;;
74496;Laerm;62979;55.720;37.606;2023-07-28T03:31:46;52.48;46.58;60.78;;
74496;Laerm;62979;55.720;37.606;2023-07-28T03:34:13;54.68;46.74;62.17;;
74496;Laerm;62979;55.720;37.606;2023-07-28T03:36:40;58.35;47.90;68.19;;
74496;Laerm;62979;55.720;37.606;2023-07-28T03:39:06;52.08;45.94;63.08;;
74496;Laerm;62979;55.720;37.606;2023-07-28T03:41:34;52.16;44.93;62.35;;
74496;Laerm;62979;55.720;37.606;2023-07-28T03:44:02;63.20;52.50;69.29;;
74496;Laerm;62979;55.720;37.606;2023-07-28T03:46:29;69.90;51.84;82.42;;
74496;Laerm;62979;55.720;37.606;2023-07-28T03:48:56;65.90;53.00;89.00;;
74496;Laerm;62979;55.720;37.606;2023-07-28T03:51:24;61.13;52.45;84.28;;
74496;Laerm;62979;55.720;37.606;2023-07-28T03:53:50;72.02;61.27;91.98;;
74496;Laerm;62979;55.720;37.606;2023-07-28T03:56:17;72.41;63.86;89.54;;
74496;Laerm;62979;55.720;37.606;2023-07-28T03:58:45;68.75;62.18;88.10;;
74496;Laerm;62979;55.720;37.606;2023-07-28T04:01:14;64.98;56.71;87.60;;
74496;Laerm;62979;55.720;37.606;2023-07-28T04:03:41;64.76;55.44;93.25;;
74496;Laerm;62979;55.720;37.606;2023-07-28T04:06:10;64.10;54.46;87.69;;
74496;Laerm;62979;55.720;37.606;2023-07-28T04:08:37;62.41;54.45;87.88;;
74496;Laerm;62979;55.720;37.606;2023-07-28T04:11:04;60.68;52.59;84.20;;
74496;Laerm;62979;55.720;37.606;2023-07-28T04:13:31;58.31;50.91;83.26;;
74496;Laerm;62979;55.720;37.606;2023-07-28T04:15:58;56.40;50.35;77.94;;
74496;Laerm;62979;55.720;37.606;2023-07-28T04:18:26;57.56;50.61;76.97;;
74496;Laerm;62979;55.720;37.606;2023-07-28T04:20:53;58.32;51.40;75.84;;
74496;Laerm;62979;55.720;37.606;2023-07-28T04:23:20;57.76;50.46;77.89;;
74496;Laerm;62979;55.720;37.606;2023-07-28T04:25:47;56.12;49.95;63.70;;
74496;Laerm;62979;55.720;37.606;2023-07-28T04:28:14;56.65;48.42;65.10;;
74496;Laerm;62979;55.720;37.606;2023-07-28T04:30:41;57.20;47.74;71.27;;
74496;Laerm;62979;55.720;37.606;2023-07-28T04:33:08;58.70;48.24;82.33;;
74496;Laerm;62979;55.720;37.606;2023-07-28T04:35:36;54.67;47.12;76.02;;
74496;Laerm;62979;55.720;37.606;2023-07-28T04:38:03;56.43;47.06;74.92;;
74496;Laerm;62979;55.720;37.606;2023-07-28T04:40:29;59.42;51.70;76.13;;
74496;Laerm;62979;55.720;37.606;2023-07-28T04:42:56;58.14;50.59;70.28;;
74496;Laerm;62979;55.720;37.606;2023-07-28T04:45:23;57.69;50.25;82.56;;
74496;Laerm;62979;55.720;37.606;2023-07-28T04:47:50;57.58;49.26;64.19;;
74496;Laerm;62979;55.720;37.606;2023-07-28T04:50:18;56.46;48.91;74.86;;
74496;Laerm;62979;55.720;37.606;2023-07-28T04:52:46;57.22;49.36;67.54;;
74496;Laerm;62979;55.720;37.606;2023-07-28T04:55:13;55.53;48.49;64.26;;
74496;Laerm;62979;55.720;37.606;2023-07-28T04:57:40;57.01;47.89;65.65;;
74496;Laerm;62979;55.720;37.606;2023-07-28T05:00:09;56.85;49.04;64.83;;
74496;Laerm;62979;55.720;37.606;2023-07-28T05:02:36;57.26;48.62;70.71;;
74496;Laerm;62979;55.720;37.606;2023-07-28T05:05:03;57.15;49.06;69.88;;
74496;Laerm;62979;55.720;37.606;2023-07-28T05:07:30;57.17;47.40;69.80;;
74496;Laerm;62979;55.720;37.606;2023-07-28T05:09:58;56.42;49.40;63.98;;
74496;Laerm;62979;55.720;37.606;2023-07-28T05:12:25;55.26;48.12;63.29;;
74496;Laerm;62979;55.720;37.606;2023-07-28T05:14:52;56.11;49.04;62.38;;
74496;Laerm;62979;55.720;37.606;2023-07-28T05:17:19;58.49;50.14;74.49;;
74496;Laerm;62979;55.720;37.606;2023-07-28T05:19:46;56.45;48.45;63.51;;
74496;Laerm;62979;55.720;37.606;2023-07-28T05:22:13;55.67;47.73;65.49;;
74496;Laerm;62979;55.720;37.606;2023-07-28T05:24:40;57.25;50.28;63.05;;
74496;Laerm;62979;55.720;37.606;2023-07-28T05:27:08;57.96;49.18;68.88;;
74496;Laerm;62979;55.720;37.606;2023-07-28T05:29:35;56.29;47.98;67.39;;
74496;Laerm;62979;55.720;37.606;2023-07-28T05:32:02;56.34;47.74;65.06;;
74496;Laerm;62979;55.720;37.606;2023-07-28T05:34:30;57.71;50.37;68.14;;
74496;Laerm;62979;55.720;37.606;2023-07-28T05:36:56;57.30;49.50;64.97;;
74496;Laerm;62979;55.720;37.606;2023-07-28T05:39:23;55.84;47.24;62.77;;
74496;Laerm;62979;55.720;37.606;2023-07-28T05:41:50;60.81;52.45;80.69;;
74496;Laerm;62979;55.720;37.606;2023-07-28T05:44:18;56.76;49.97;62.90;;
74496;Laerm;62979;55.720;37.606;2023-07-28T05:46:45;56.46;48.74;62.91;;
74496;Laerm;62979;55.720;37.606;2023-07-28T05:49:14;57.64;49.84;64.09;;
74496;Laerm;62979;55.720;37.606;2023-07-28T05:51:41;58.97;51.11;71.22;;
74496;Laerm;62979;55.720;37.606;2023-07-28T05:54:07;57.05;51.87;62.92;;
74496;Laerm;62979;55.720;37.606;2023-07-28T05:56:34;56.92;51.36;63.49;;
74496;Laerm;62979;55.720;37.606;2023-07-28T05:59:01;60.00;50.85;78.80;;
74496;Laerm;62979;55.720;37.606;2023-07-28T06:01:30;57.01;51.19;67.69;;
74496;Laerm;62979;55.720;37.606;2023-07-28T06:03:57;58.57;50.83;69.98;;
74496;Laerm;62979;55.720;37.606;2023-07-28T06:06:24;58.04;49.17;69.19;;
74496;Laerm;62979;55.720;37.606;2023-07-28T06:08:51;54.52;48.46;60.26;;
74496;Laerm;62979;55.720;37.606;2023-07-28T06:11:18;59.85;50.20;78.44;;
74496;Laerm;62979;55.720;37.606;2023-07-28T06:13:46;63.16;49.51;76.73;;
74496;Laerm;62979;55.720;37.606;2023-07-28T06:16:13;55.98;47.36;64.59;;
74496;Laerm;62979;55.720;37.606;2023-07-28T06:18:41;56.43;47.82;63.88;;
74496;Laerm;62979;55.720;37.606;2023-07-28T06:21:08;56.87;51.16;67.74;;
74496;Laerm;62979;55.720;37.606;2023-07-28T06:23:35;55.94;50.66;63.31;;
74496;Laerm;62979;55.720;37.606;2023-07-28T06:26:02;54.98;48.34;65.11;;
74496;Laerm;62979;55.720;37.606;2023-07-28T06:28:29;56.44;47.78;63.93;;
74496;Laerm;62979;55.720;37.606;2023-07-28T06:30:57;55.47;49.04;62.72;;
74496;Laerm;62979;55.720;37.606;2023-07-28T06:33:25;58.62;49.65;66.16;;
74496;Laerm;62979;55.720;37.606;2023-07-28T06:35:53;56.28;49.80;63.02;;
74496;Laerm;62979;55.720;37.606;2023-07-28T06:38:20;55.32;49.34;65.84;;
74496;Laerm;62979;55.720;37.606;2023-07-28T06:40:48;58.36;51.67;74.74;;
74496;Laerm;62979;55.720;37.606;2023-07-28T06:43:15;57.97;50.04;63.63;;
74496;Laerm;62979;55.720;37.606;2023-07-28T06:45:43;59.30;51.47;75.89;;
74496;Laerm;62979;55.720;37.606;2023-07-28T06:48:10;60.90;56.40;65.24;;
74496;Laerm;62979;55.720;37.606;2023-07-28T06:50:37;60.26;53.75;79.03;;
74496;Laerm;62979;55.720;37.606;2023-07-28T06:53:05;60.99;53.04;76.83;;
74496;Laerm;62979;55.720;37.606;2023-07-28T06:55:32;73.77;59.33;85.82;;
74496;Laerm;62979;55.720;37.606;2023-07-28T06:57:59;70.94;59.37;89.36;;
74496;Laerm;62979;55.720;37.606;2023-07-28T07:00:26;67.24;59.56;90.72;;
74496;Laerm;62979;55.720;37.606;2023-07-28T07:02:53;63.90;56.23;82.30;;
74496;Laerm;62979;55.720;37.606;2023-07-28T07:05:20;63.44;55.40;78.72;;
74496;Laerm;62979;55.720;37.606;2023-07-28T07:07:47;60.42;54.10;71.08;;
74496;Laerm;62979;55.720;37.606;2023-07-28T07:10:15;62.25;53.64;77.32;;
74496;Laerm;62979;55.720;37.606;2023-07-28T07:12:42;67.17;53.90;85.58;;
74496;Laerm;62979;55.720;37.606;2023-07-28T07:15:09;60.02;53.48;75.83;;
74496;Laerm;62979;55.720;37.606;2023-07-28T07:17:37;63.57;57.04;79.39;;
74496;Laerm;62979;55.720;37.606;2023-07-28T07:20:07;60.99;56.16;70.80;;
74496;Laerm;62979;55.720;37.606;2023-07-28T07:22:36;61.70;54.95;87.76;;
74496;Laerm;62979;55.720;37.606;2023-07-28T07:25:04;60.45;54.10;78.68;;
74496;Laerm;62979;55.720;37.606;2023-07-28T07:27:33;60.52;54.36;80.34;;
74496;Laerm;62979;55.720;37.606;2023-07-28T07:30:00;59.12;49.93;75.44;;
74496;Laerm;62979;55.720;37.606;2023-07-28T07:32:27;56.82;50.02;75.72;;
74496;Laerm;62979;55.720;37.606;2023-07-28T07:34:54;59.91;52.50;86.74;;
74496;Laerm;62979;55.720;37.606;2023-07-28T07:37:21;58.21;51.09;69.00;;
74496;Laerm;62979;55.720;37.606;2023-07-28T07:39:48;59.24;51.74;78.39;;
74496;Laerm;62979;55.720;37.606;2023-07-28T07:42:16;60.31;54.15;70.87;;
74496;Laerm;62979;55.720;37.606;2023-07-28T07:44:44;59.95;53.34;82.93;;
74496;Laerm;62979;55.720;37.606;2023-07-28T07:47:15;58.52;51.96;79.11;;
74496;Laerm;62979;55.720;37.606;2023-07-28T07:49:43;58.83;50.31;81.66;;
74496;Laerm;62979;55.720;37.606;2023-07-28T07:52:10;59.11;52.03;78.22;;
74496;Laerm;62979;55.720;37.606;2023-07-28T07:54:37;58.54;52.19;71.02;;
74496;Laerm;62979;55.720;37.606;2023-07-28T07:57:05;59.63;52.39;78.79;;
74496;Laerm;62979;55.720;37.606;2023-07-28T07:59:33;59.30;50.43;69.44;;
74496;Laerm;62979;55.720;37.606;2023-07-28T08:02:01;56.37;50.20;67.68;;
74496;Laerm;62979;55.720;37.606;2023-07-28T08:04:29;58.32;50.30;78.18;;
74496;Laerm;62979;55.720;37.606;2023-07-28T08:06:57;56.43;49.23;67.61;;
74496;Laerm;62979;55.720;37.606;2023-07-28T08:09:23;57.06;48.97;69.52;;
74496;Laerm;62979;55.720;37.606;2023-07-28T08:11:50;58.12;51.69;64.07;;
74496;Laerm;62979;55.720;37.606;2023-07-28T08:14:18;56.03;50.03;66.46;;
74496;Laerm;62979;55.720;37.606;2023-07-28T08:16:45;57.95;50.23;66.43;;
74496;Laerm;62979;55.720;37.606;2023-07-28T08:19:13;58.40;51.96;73.13;;
74496;Laerm;62979;55.720;37.606;2023-07-28T08:21:40;57.75;51.31;64.28;;
74496;Laerm;62979;55.720;37.606;2023-07-28T08:24:07;59.84;50.78;74.08;;
74496;Laerm;62979;55.720;37.606;2023-07-28T08:26:34;60.25;50.84;71.33;;
74496;Laerm;62979;55.720;37.606;2023-07-28T08:29:01;61.02;51.68;73.14;;
74496;Laerm;62979;55.720;37.606;2023-07-28T08:31:28;62.13;54.55;72.31;;
74496;Laerm;62979;55.720;37.606;2023-07-28T08:33:55;59.35;53.30;77.91;;
74496;Laerm;62979;55.720;37.606;2023-07-28T08:36:23;61.97;52.85;77.33;;
74496;Laerm;62979;55.720;37.606;2023-07-28T08:38:50;57.79;52.70;65.47;;
74496;Laerm;62979;55.720;37.606;2023-07-28T08:41:17;56.36;49.61;63.56;;
74496;Laerm;62979;55.720;37.606;2023-07-28T08:43:45;55.22;48.43;62.29;;
74496;Laerm;62979;55.720;37.606;2023-07-28T08:46:11;58.19;49.03;71.40;;
74496;Laerm;62979;55.720;37.606;2023-07-28T08:48:39;59.22;51.39;70.25;;
74496;Laerm;62979;55.720;37.606;2023-07-28T08:51:06;58.63;51.24;67.91;;
74496;Laerm;62979;55.720;37.606;2023-07-28T08:53:35;56.17;49.85;66.14;;
74496;Laerm;62979;55.720;37.606;2023-07-28T08:56:02;55.78;49.13;61.70;;
74496;Laerm;62979;55.720;37.606;2023-07-28T08:58:30;55.10;49.29;61.57;;
74496;Laerm;62979;55.720;37.606;2023-07-28T09:00:57;60.61;51.39;68.82;;
74496;Laerm;62979;55.720;37.606;2023-07-28T09:03:26;61.62;54.36;66.25;;
74496;Laerm;62979;55.720;37.606;2023-07-28T09:05:59;61.64;54.82;71.01;;
74496;Laerm;62979;55.720;37.606;2023-07-28T09:08:26;61.58;52.08;68.82;;
74496;Laerm;62979;55.720;37.606;2023-07-28T09:10:54;59.75;51.21;81.32;;
74496;Laerm;62979;55.720;37.606;2023-07-28T09:13:21;56.16;50.68;68.35;;
74496;Laerm;62979;55.720;37.606;2023-07-28T09:15:48;56.20;50.44;68.00;;
74496;Laerm;62979;55.720;37.606;2023-07-28T09:18:17;56.17;49.94;63.68;;
74496;Laerm;62979;55.720;37.606;2023-07-28T09:20:44;56.14;49.08;66.28;;
74496;Laerm;62979;55.720;37.606;2023-07-28T09:23:14;55.10;49.67;63.46;;
74496;Laerm;62979;55.720;37.606;2023-07-28T09:25:42;55.53;49.65;66.84;;
74496;Laerm;62979;55.720;37.606;2023-07-28T09:28:10;56.98;50.37;69.34;;
74496;Laerm;62979;55.720;37.606;2023-07-28T09:30:47;57.61;50.77;64.16;;
74496;Laerm;62979;55.720;37.606;2023-07-28T09:33:29;58.23;51.73;73.86;;
74496;Laerm;62979;55.720;37.606;2023-07-28T09:35:57;57.62;52.26;70.83;;
74496;Laerm;62979;55.720;37.606;2023-07-28T09:38:27;57.29;50.86;63.96;;
74496;Laerm;62979;55.720;37.606;2023-07-28T09:40:57;54.43;49.20;63.71;;
74496;Laerm;62979;55.720;37.606;2023-07-28T09:43:26;55.85;49.91;69.61;;
74496;Laerm;62979;55.720;37.606;2023-07-28T09:45:56;55.62;48.93;62.15;;
74496;Laerm;62979;55.720;37.606;2023-07-28T09:48:25;55.85;50.14;66.43;;
74496;Laerm;62979;55.720;37.606;2023-07-28T09:50:58;61.46;50.31;84.76;;
74496;Laerm;62979;55.720;37.606;2023-07-28T09:53:28;55.36;49.34;70.29;;
74496;Laerm;62979;55.720;37.606;2023-07-28T09:55:58;56.12;49.08;67.73;;
74496;Laerm;62979;55.720;37.606;2023-07-28T09:58:28;58.69;49.87;76.32;;
74496;Laerm;62979;55.720;37.606;2023-07-28T10:00:57;55.86;50.83;67.21;;
74496;Laerm;62979;55.720;37.606;2023-07-28T10:03:25;55.12;50.43;62.38;;
74496;Laerm;62979;55.720;37.606;2023-07-28T10:05:53;54.36;48.44;65.59;;
74496;Laerm;62979;55.720;37.606;2023-07-28T10:08:20;55.71;48.55;71.96;;
74496;Laerm;62979;55.720;37.606;2023-07-28T10:10:47;55.76;48.19;67.41;;
74496;Laerm;62979;55.720;37.606;2023-07-28T10:13:20;55.44;48.11;65.07;;
74496;Laerm;62979;55.720;37.606;2023-07-28T10:15:49;57.02;49.14;74.81;;
74496;Laerm;62979;55.720;37.606;2023-07-28T10:18:20;57.13;49.83;66.08;;
74496;Laerm;62979;55.720;37.606;2023-07-28T10:20:47;58.07;51.09;66.90;;
74496;Laerm;62979;55.720;37.606;2023-07-28T10:23:16;59.27;52.08;82.51;;
74496;Laerm;62979;55.720;37.606;2023-07-28T10:25:44;58.37;50.99;76.45;;
74496;Laerm;62979;55.720;37.606;2023-07-28T10:28:30;59.63;51.16;70.20;;
74496;Laerm;62979;55.720;37.606;2023-07-28T10:31:00;59.38;52.59;71.84;;
74496;Laerm;62979;55.720;37.606;2023-07-28T10:33:30;58.19;52.09;70.68;;
74496;Laerm;62979;55.720;37.606;2023-07-28T10:35:58;58.85;49.02;70.42;;
74496;Laerm;62979;55.720;37.606;2023-07-28T10:38:33;58.15;50.70;83.42;;
74496;Laerm;62979;55.720;37.606;2023-07-28T10:41:13;58.96;51.38;78.96;;
74496;Laerm;62979;55.720;37.606;2023-07-28T10:43:43;58.53;52.42;76.83;;
74496;Laerm;62979;55.720;37.606;2023-07-28T10:46:15;56.25;50.52;70.97;;
74496;Laerm;62979;55.720;37.606;2023-07-28T10:48:44;58.65;49.44;80.03;;
74496;Laerm;62979;55.720;37.606;2023-07-28T10:51:11;56.67;48.02;72.06;;
74496;Laerm;62979;55.720;37.606;2023-07-28T10:53:39;57.73;47.66;81.74;;
74496;Laerm;62979;55.720;37.606;2023-07-28T10:56:06;58.53;51.79;81.94;;
74496;Laerm;62979;55.720;37.606;2023-07-28T10:58:35;58.06;49.97;67.85;;
74496;Laerm;62979;55.720;37.606;2023-07-28T11:01:03;58.28;50.43;63.93;;
74496;Laerm;62979;55.720;37.606;2023-07-28T11:03:31;59.51;51.98;65.19;;
74496;Laerm;62979;55.720;37.606;2023-07-28T11:05:59;62.49;52.74;73.84;;
74496;Laerm;62979;55.720;37.606;2023-07-28T11:08:26;63.60;55.82;91.93;;
74496;Laerm;62979;55.720;37.606;2023-07-28T11:10:53;59.44;54.50;75.65;;
74496;Laerm;62979;55.720;37.606;2023-07-28T11:13:22;57.76;52.79;70.08;;
74496;Laerm;62979;55.720;37.606;2023-07-28T11:15:51;57.69;50.98;73.76;;
74496;Laerm;62979;55.720;37.606;2023-07-28T11:18:19;56.58;50.39;68.48;;
74496;Laerm;62979;55.720;37.606;2023-07-28T11:20:48;56.37;49.75;66.58;;
74496;Laerm;62979;55.720;37.606;2023-07-28T11:23:15;57.10;50.66;67.03;;
74496;Laerm;62979;55.720;37.606;2023-07-28T11:25:43;57.12;50.78;72.60;;
74496;Laerm;62979;55.720;37.606;2023-07-28T11:28:13;57.52;52.70;65.24;;
74496;Laerm;62979;55.720;37.606;2023-07-28T11:30:40;57.53;51.59;67.03;;
74496;Laerm;62979;55.720;37.606;2023-07-28T11:33:09;57.07;52.34;65.21;;
74496;Laerm;62979;55.720;37.606;2023-07-28T11:35:38;58.60;53.25;68.94;;
74496;Laerm;62979;55.720;37.606;2023-07-28T11:38:08;59.84;54.17;67.12;;
74496;Laerm;62979;55.720;37.606;2023-07-28T11:40:36;57.59;50.80;68.97;;
74496;Laerm;62979;55.720;37.606;2023-07-28T11:43:04;57.36;52.19;70.95;;
74496;Laerm;62979;55.720;37.606;2023-07-28T11:45:31;57.38;51.56;75.83;;
74496;Laerm;62979;55.720;37.606;2023-07-28T11:48:01;58.44;51.62;68.33;;
74496;Laerm;62979;55.720;37.606;2023-07-28T11:50:31;54.02;48.27;63.76;;
74496;Laerm;62979;55.720;37.606;2023-07-28T11:53:01;56.85;46.68;69.66;;
74496;Laerm;62979;55.720;37.606;2023-07-28T11:55:29;56.08;47.14;75.88;;
74496;Laerm;62979;55.720;37.606;2023-07-28T11:57:56;57.36;51.25;73.48;;
74496;Laerm;62979;55.720;37.606;2023-07-28T12:00:30;56.38;49.57;72.04;;
74496;Laerm;62979;55.720;37.606;2023-07-28T12:03:08;56.39;50.13;69.20;;
74496;Laerm;62979;55.720;37.606;2023-07-28T12:05:39;55.55;48.42;67.23;;
74496;Laerm;62979;55.720;37.606;2023-07-28T12:08:06;62.56;50.85;76.72;;
74496;Laerm;62979;55.720;37.606;2023-07-28T12:10:35;60.11;47.96;74.03;;
74496;Laerm;62979;55.720;37.606;2023-07-28T12:13:07;63.87;51.64;91.71;;
74496;Laerm;62979;55.720;37.606;2023-07-28T12:15:41;57.07;49.96;68.00;;
74496;Laerm;62979;55.720;37.606;2023-07-28T12:18:09;56.60;49.57;76.47;;
74496;Laerm;62979;55.720;37.606;2023-07-28T12:20:39;55.65;49.65;65.48;;
74496;Laerm;62979;55.720;37.606;2023-07-28T12:23:08;57.05;49.22;66.28;;
74496;Laerm;62979;55.720;37.606;2023-07-28T12:25:37;56.03;50.29;63.27;;
74496;Laerm;62979;55.720;37.606;2023-07-28T12:28:04;57.88;49.49;65.00;;
74496;Laerm;62979;55.720;37.606;2023-07-28T12:30:32;54.44;48.31;69.59;;
74496;Laerm;62979;55.720;37.606;2023-07-28T12:33:01;56.80;49.64;67.06;;
74496;Laerm;62979;55.720;37.606;2023-07-28T12:35:29;57.86;51.14;70.13;;
74496;Laerm;62979;55.720;37.606;2023-07-28T12:37:58;59.39;52.15;71.18;;
74496;Laerm;62979;55.720;37.606;2023-07-28T12:40:27;59.71;52.57;72.63;;
74496;Laerm;62979;55.720;37.606;2023-07-28T12:42:57;58.08;52.85;73.79;;
74496;Laerm;62979;55.720;37.606;2023-07-28T12:45:24;57.79;51.82;73.65;;
74496;Laerm;62979;55.720;37.606;2023-07-28T12:47:51;57.65;50.04;69.32;;
74496;Laerm;62979;55.720;37.606;2023-07-28T12:50:19;57.62;53.13;69.66;;
74496;Laerm;62979;55.720;37.606;2023-07-28T12:52:47;59.59;54.20;76.44;;
74496;Laerm;62979;55.720;37.606;2023-07-28T12:55:14;57.30;51.23;67.25;;
74496;Laerm;62979;55.720;37.606;2023-07-28T12:57:41;59.03;51.83;75.50;;
74496;Laerm;62979;55.720;37.606;2023-07-28T13:00:11;58.75;53.39;67.24;;
74496;Laerm;62979;55.720;37.606;2023-07-28T13:02:40;58.76;50.46;83.86;;
74496;Laerm;62979;55.720;37.606;2023-07-28T13:05:09;60.61;54.23;71.30;;
74496;Laerm;62979;55.720;37.606;2023-07-28T13:07:38;61.21;53.60;73.74;;
74496;Laerm;62979;55.720;37.606;2023-07-28T13:10:08;58.17;50.65;65.68;;
74496;Laerm;62979;55.720;37.606;2023-07-28T13:12:37;58.37;51.47;76.95;;
74496;Laerm;62979;55.720;37.606;2023-07-28T13:15:05;58.22;51.09;67.89;;
74496;Laerm;62979;55.720;37.606;2023-07-28T13:17:33;56.13;48.89;66.85;;
74496;Laerm;62979;55.720;37.606;2023-07-28T13:20:00;58.23;49.34;64.71;;
74496;Laerm;62979;55.720;37.606;2023-07-28T13:22:27;55.86;49.67;64.50;;
74496;Laerm;62979;55.720;37.606;2023-07-28T13:24:54;57.86;52.32;64.83;;
74496;Laerm;62979;55.720;37.606;2023-07-28T13:27:21;59.40;53.13;72.03;;
74496;Laerm;62979;55.720;37.606;2023-07-28T13:29:48;61.91;56.39;72.38;;
74496;Laerm;62979;55.720;37.606;2023-07-28T13:32:17;63.22;57.66;77.24;;
74496;Laerm;62979;55.720;37.606;2023-07-28T13:34:46;64.07;57.80;88.84;;
74496;Laerm;62979;55.720;37.606;2023-07-28T13:37:13;65.19;58.87;83.98;;